Terminal Aerodrome Forecast
Issued by NWS

Home | Current Version | Previous Version | Text Only | Print | Product List | Glossary On
Versions: 1 2 3 4 5 6 7 8 9 10 11 12 13 14
772
FTUS46 KSEW 240521
TAFHQM
TAF
KHQM 240521Z 2406/2506 27009KT 3SM BR OVC008
     FM240900 25005KT 5SM BR OVC007
     FM241900 25007KT P6SM BKN025
     FM242300 27012KT P6SM SCT030
     FM250400 27010KT P6SM BKN030=

USA.gov is the U.S. government's official web portal to all federal, state and local government web resources and services.